Terminal Aerodrome Forecast
Issued by NWS

Home | Current Version | Previous Version | Text Only | Print | Product List | Glossary On
Versions: 1 2 3 4 5 6 7 8 9 10 11 12 13 14 15 16 17
000
FTUS41 KRNK 302331
TAFBCB
TAF
KBCB 302331Z 3100/3124 VRB03KT 6SM -TSRA OVC050CB
      TEMPO 3100/3101 31010KT 2SM TSRA OVC035CB
     FM310200 VRB03KT P6SM SCT250
     FM310500 00000KT 1/2SM FG OVC001
     FM311400 06004KT P6SM SCT250
     FM311800 09006KT P6SM VCTS OVC045CB=

USA.gov is the U.S. government's official web portal to all federal, state and local government web resources and services.